sensor_id;sensor_type;location;lat;lon;timestamp;P1;durP1;ratioP1;P2;durP2;ratioP2
9473;SDS011;8865;47.636;7.692;2022-10-23T00:01:21;6.70;;;2.23;;
9473;SDS011;8865;47.636;7.692;2022-10-23T00:03:52;6.13;;;2.50;;
9473;SDS011;8865;47.636;7.692;2022-10-23T00:06:20;3.50;;;2.40;;
9473;SDS011;8865;47.636;7.692;2022-10-23T00:08:46;5.00;;;2.90;;
9473;SDS011;8865;47.636;7.692;2022-10-23T00:11:14;4.40;;;2.60;;
9473;SDS011;8865;47.636;7.692;2022-10-23T00:13:42;5.83;;;2.60;;
9473;SDS011;8865;47.636;7.692;2022-10-23T00:16:08;7.57;;;3.20;;
9473;SDS011;8865;47.636;7.692;2022-10-23T00:18:34;6.77;;;3.10;;
9473;SDS011;8865;47.636;7.692;2022-10-23T00:21:01;8.97;;;3.70;;
9473;SDS011;8865;47.636;7.692;2022-10-23T00:23:27;5.77;;;3.23;;
9473;SDS011;8865;47.636;7.692;2022-10-23T00:25:54;5.43;;;2.40;;
9473;SDS011;8865;47.636;7.692;2022-10-23T00:28:20;6.10;;;2.40;;
9473;SDS011;8865;47.636;7.692;2022-10-23T00:30:46;5.13;;;2.10;;
9473;SDS011;8865;47.636;7.692;2022-10-23T00:33:12;10.63;;;2.30;;
9473;SDS011;8865;47.636;7.692;2022-10-23T00:35:41;8.77;;;2.13;;
9473;SDS011;8865;47.636;7.692;2022-10-23T00:38:08;5.83;;;1.90;;
9473;SDS011;8865;47.636;7.692;2022-10-23T00:40:35;4.47;;;2.03;;
9473;SDS011;8865;47.636;7.692;2022-10-23T00:43:02;6.50;;;2.27;;
9473;SDS011;8865;47.636;7.692;2022-10-23T00:45:32;8.93;;;2.47;;
9473;SDS011;8865;47.636;7.692;2022-10-23T00:47:59;6.60;;;2.17;;
9473;SDS011;8865;47.636;7.692;2022-10-23T00:50:27;5.63;;;1.90;;
9473;SDS011;8865;47.636;7.692;2022-10-23T00:52:56;3.40;;;1.70;;
9473;SDS011;8865;47.636;7.692;2022-10-23T00:55:24;11.47;;;2.20;;
9473;SDS011;8865;47.636;7.692;2022-10-23T00:57:51;3.60;;;2.13;;
9473;SDS011;8865;47.636;7.692;2022-10-23T01:00:19;5.80;;;1.80;;
9473;SDS011;8865;47.636;7.692;2022-10-23T01:02:48;5.10;;;1.70;;
9473;SDS011;8865;47.636;7.692;2022-10-23T01:05:14;7.57;;;1.80;;
9473;SDS011;8865;47.636;7.692;2022-10-23T01:07:47;6.57;;;1.60;;
9473;SDS011;8865;47.636;7.692;2022-10-23T01:21:17;4.33;;;1.50;;
9473;SDS011;8865;47.636;7.692;2022-10-23T01:30:03;3.93;;;1.60;;
9473;SDS011;8865;47.636;7.692;2022-10-23T01:32:41;6.40;;;1.50;;
9473;SDS011;8865;47.636;7.692;2022-10-23T01:35:31;7.07;;;1.70;;
9473;SDS011;8865;47.636;7.692;2022-10-23T01:38:05;5.00;;;1.70;;
9473;SDS011;8865;47.636;7.692;2022-10-23T01:40:42;4.33;;;1.50;;
9473;SDS011;8865;47.636;7.692;2022-10-23T01:43:16;7.53;;;1.73;;
9473;SDS011;8865;47.636;7.692;2022-10-23T01:45:47;4.10;;;1.37;;
9473;SDS011;8865;47.636;7.692;2022-10-23T01:48:18;3.90;;;1.50;;
9473;SDS011;8865;47.636;7.692;2022-10-23T01:50:49;5.30;;;3.10;;
9473;SDS011;8865;47.636;7.692;2022-10-23T01:53:18;7.50;;;2.53;;
9473;SDS011;8865;47.636;7.692;2022-10-23T01:55:45;4.77;;;1.80;;
9473;SDS011;8865;47.636;7.692;2022-10-23T01:58:14;4.30;;;1.87;;
9473;SDS011;8865;47.636;7.692;2022-10-23T02:00:41;4.53;;;1.37;;
9473;SDS011;8865;47.636;7.692;2022-10-23T02:03:10;1.73;;;1.30;;
9473;SDS011;8865;47.636;7.692;2022-10-23T02:05:37;2.20;;;1.63;;
9473;SDS011;8865;47.636;7.692;2022-10-23T02:08:04;3.53;;;1.20;;
9473;SDS011;8865;47.636;7.692;2022-10-23T02:10:33;3.77;;;1.30;;
9473;SDS011;8865;47.636;7.692;2022-10-23T02:13:08;4.27;;;1.50;;
9473;SDS011;8865;47.636;7.692;2022-10-23T02:15:45;4.30;;;1.33;;
9473;SDS011;8865;47.636;7.692;2022-10-23T02:20:52;4.87;;;1.57;;
9473;SDS011;8865;47.636;7.692;2022-10-23T02:24:24;6.40;;;1.97;;
9473;SDS011;8865;47.636;7.692;2022-10-23T02:26:41;1.60;;;1.50;;
9473;SDS011;8865;47.636;7.692;2022-10-23T02:29:13;4.03;;;1.70;;
9473;SDS011;8865;47.636;7.692;2022-10-23T02:31:44;3.70;;;1.60;;
9473;SDS011;8865;47.636;7.692;2022-10-23T02:34:10;8.30;;;1.70;;
9473;SDS011;8865;47.636;7.692;2022-10-23T02:36:36;4.23;;;1.70;;
9473;SDS011;8865;47.636;7.692;2022-10-23T02:39:03;5.43;;;1.37;;
9473;SDS011;8865;47.636;7.692;2022-10-23T02:46:41;6.93;;;1.73;;
9473;SDS011;8865;47.636;7.692;2022-10-23T02:49:31;4.73;;;1.23;;
9473;SDS011;8865;47.636;7.692;2022-10-23T02:52:20;7.13;;;1.40;;
9473;SDS011;8865;47.636;7.692;2022-10-23T02:57:49;8.33;;;1.50;;
9473;SDS011;8865;47.636;7.692;2022-10-23T03:00:20;4.77;;;1.43;;
9473;SDS011;8865;47.636;7.692;2022-10-23T03:02:55;4.43;;;1.30;;
9473;SDS011;8865;47.636;7.692;2022-10-23T03:05:25;6.47;;;1.40;;
9473;SDS011;8865;47.636;7.692;2022-10-23T03:07:55;5.27;;;1.60;;
9473;SDS011;8865;47.636;7.692;2022-10-23T03:10:22;5.73;;;1.30;;
9473;SDS011;8865;47.636;7.692;2022-10-23T03:12:48;3.07;;;1.40;;
9473;SDS011;8865;47.636;7.692;2022-10-23T03:15:15;6.03;;;1.27;;
9473;SDS011;8865;47.636;7.692;2022-10-23T03:17:41;2.50;;;1.40;;
9473;SDS011;8865;47.636;7.692;2022-10-23T03:20:08;5.23;;;1.37;;
9473;SDS011;8865;47.636;7.692;2022-10-23T03:22:34;2.90;;;1.30;;
9473;SDS011;8865;47.636;7.692;2022-10-23T03:25:00;5.33;;;1.47;;
9473;SDS011;8865;47.636;7.692;2022-10-23T03:27:26;7.50;;;1.60;;
9473;SDS011;8865;47.636;7.692;2022-10-23T03:29:52;5.20;;;1.30;;
9473;SDS011;8865;47.636;7.692;2022-10-23T03:32:18;4.17;;;1.20;;
9473;SDS011;8865;47.636;7.692;2022-10-23T03:34:44;7.03;;;1.33;;
9473;SDS011;8865;47.636;7.692;2022-10-23T03:37:10;3.03;;;1.20;;
9473;SDS011;8865;47.636;7.692;2022-10-23T03:39:36;4.47;;;1.23;;
9473;SDS011;8865;47.636;7.692;2022-10-23T03:42:02;4.30;;;1.27;;
9473;SDS011;8865;47.636;7.692;2022-10-23T03:44:28;7.47;;;1.40;;
9473;SDS011;8865;47.636;7.692;2022-10-23T03:46:56;9.90;;;1.57;;
9473;SDS011;8865;47.636;7.692;2022-10-23T03:49:22;3.87;;;1.30;;
9473;SDS011;8865;47.636;7.692;2022-10-23T03:51:48;3.63;;;1.40;;
9473;SDS011;8865;47.636;7.692;2022-10-23T03:54:22;5.90;;;1.40;;
9473;SDS011;8865;47.636;7.692;2022-10-23T03:56:52;4.43;;;1.40;;
9473;SDS011;8865;47.636;7.692;2022-10-23T03:59:19;5.43;;;1.20;;
9473;SDS011;8865;47.636;7.692;2022-10-23T04:01:45;4.93;;;1.40;;
9473;SDS011;8865;47.636;7.692;2022-10-23T04:04:11;3.00;;;1.20;;
9473;SDS011;8865;47.636;7.692;2022-10-23T04:06:37;6.87;;;1.30;;
9473;SDS011;8865;47.636;7.692;2022-10-23T04:09:03;3.43;;;1.40;;
9473;SDS011;8865;47.636;7.692;2022-10-23T04:11:30;4.47;;;1.67;;
9473;SDS011;8865;47.636;7.692;2022-10-23T04:13:56;2.97;;;1.37;;
9473;SDS011;8865;47.636;7.692;2022-10-23T04:16:22;5.60;;;1.73;;
9473;SDS011;8865;47.636;7.692;2022-10-23T04:18:49;2.93;;;1.40;;
9473;SDS011;8865;47.636;7.692;2022-10-23T04:21:15;2.90;;;1.67;;
9473;SDS011;8865;47.636;7.692;2022-10-23T04:23:41;4.03;;;1.67;;
9473;SDS011;8865;47.636;7.692;2022-10-23T04:26:07;3.57;;;1.63;;
9473;SDS011;8865;47.636;7.692;2022-10-23T04:28:33;2.57;;;1.60;;
9473;SDS011;8865;47.636;7.692;2022-10-23T04:30:59;2.70;;;1.70;;
9473;SDS011;8865;47.636;7.692;2022-10-23T04:33:25;5.07;;;1.40;;
9473;SDS011;8865;47.636;7.692;2022-10-23T04:35:51;4.47;;;1.90;;
9473;SDS011;8865;47.636;7.692;2022-10-23T04:38:17;1.83;;;1.47;;
9473;SDS011;8865;47.636;7.692;2022-10-23T04:40:43;4.77;;;1.70;;
9473;SDS011;8865;47.636;7.692;2022-10-23T04:43:09;8.77;;;1.77;;
9473;SDS011;8865;47.636;7.692;2022-10-23T04:45:35;1.73;;;1.33;;
9473;SDS011;8865;47.636;7.692;2022-10-23T04:48:02;2.07;;;1.50;;
9473;SDS011;8865;47.636;7.692;2022-10-23T04:50:28;3.07;;;1.40;;
9473;SDS011;8865;47.636;7.692;2022-10-23T04:52:54;3.47;;;1.50;;
9473;SDS011;8865;47.636;7.692;2022-10-23T04:55:21;2.63;;;1.37;;
9473;SDS011;8865;47.636;7.692;2022-10-23T04:57:50;3.33;;;1.20;;
9473;SDS011;8865;47.636;7.692;2022-10-23T05:00:16;2.80;;;1.20;;
9473;SDS011;8865;47.636;7.692;2022-10-23T05:02:43;2.20;;;1.20;;
9473;SDS011;8865;47.636;7.692;2022-10-23T05:05:10;3.97;;;1.20;;
9473;SDS011;8865;47.636;7.692;2022-10-23T05:07:36;4.23;;;1.50;;
9473;SDS011;8865;47.636;7.692;2022-10-23T05:10:03;1.50;;;1.07;;
9473;SDS011;8865;47.636;7.692;2022-10-23T05:12:30;3.40;;;1.10;;
9473;SDS011;8865;47.636;7.692;2022-10-23T05:14:56;4.63;;;1.27;;
9473;SDS011;8865;47.636;7.692;2022-10-23T05:17:23;3.40;;;1.27;;
9473;SDS011;8865;47.636;7.692;2022-10-23T05:19:54;3.10;;;1.10;;
9473;SDS011;8865;47.636;7.692;2022-10-23T05:22:23;4.03;;;1.70;;
9473;SDS011;8865;47.636;7.692;2022-10-23T05:24:51;4.63;;;1.40;;
9473;SDS011;8865;47.636;7.692;2022-10-23T05:27:18;4.43;;;1.53;;
9473;SDS011;8865;47.636;7.692;2022-10-23T05:29:44;2.57;;;1.57;;
9473;SDS011;8865;47.636;7.692;2022-10-23T05:32:11;6.80;;;1.50;;
9473;SDS011;8865;47.636;7.692;2022-10-23T05:34:40;2.40;;;1.17;;
9473;SDS011;8865;47.636;7.692;2022-10-23T05:37:07;3.30;;;1.30;;
9473;SDS011;8865;47.636;7.692;2022-10-23T05:39:36;2.37;;;1.13;;
9473;SDS011;8865;47.636;7.692;2022-10-23T05:42:02;4.90;;;1.30;;
9473;SDS011;8865;47.636;7.692;2022-10-23T05:44:29;4.00;;;1.33;;
9473;SDS011;8865;47.636;7.692;2022-10-23T05:46:55;5.83;;;1.50;;
9473;SDS011;8865;47.636;7.692;2022-10-23T05:49:22;2.33;;;1.30;;
9473;SDS011;8865;47.636;7.692;2022-10-23T05:51:49;6.17;;;1.30;;
9473;SDS011;8865;47.636;7.692;2022-10-23T05:54:15;2.80;;;1.33;;
9473;SDS011;8865;47.636;7.692;2022-10-23T05:56:41;3.73;;;1.23;;
9473;SDS011;8865;47.636;7.692;2022-10-23T05:59:07;3.17;;;1.13;;
9473;SDS011;8865;47.636;7.692;2022-10-23T06:01:33;4.03;;;1.43;;
9473;SDS011;8865;47.636;7.692;2022-10-23T06:04:00;1.53;;;1.20;;
9473;SDS011;8865;47.636;7.692;2022-10-23T06:06:26;3.87;;;1.47;;
9473;SDS011;8865;47.636;7.692;2022-10-23T06:08:53;4.40;;;1.50;;
9473;SDS011;8865;47.636;7.692;2022-10-23T06:11:19;2.20;;;1.07;;
9473;SDS011;8865;47.636;7.692;2022-10-23T06:13:45;1.77;;;1.30;;
9473;SDS011;8865;47.636;7.692;2022-10-23T06:16:14;4.60;;;1.20;;
9473;SDS011;8865;47.636;7.692;2022-10-23T06:18:42;3.03;;;1.60;;
9473;SDS011;8865;47.636;7.692;2022-10-23T06:21:08;4.23;;;1.20;;
9473;SDS011;8865;47.636;7.692;2022-10-23T06:23:35;4.90;;;1.47;;
9473;SDS011;8865;47.636;7.692;2022-10-23T06:26:03;3.20;;;1.27;;
9473;SDS011;8865;47.636;7.692;2022-10-23T06:28:30;2.90;;;1.30;;
9473;SDS011;8865;47.636;7.692;2022-10-23T06:30:56;3.90;;;1.33;;
9473;SDS011;8865;47.636;7.692;2022-10-23T06:33:22;2.13;;;0.93;;
9473;SDS011;8865;47.636;7.692;2022-10-23T06:35:47;4.13;;;1.10;;
9473;SDS011;8865;47.636;7.692;2022-10-23T06:38:14;4.53;;;1.10;;
9473;SDS011;8865;47.636;7.692;2022-10-23T06:40:40;3.10;;;0.90;;
9473;SDS011;8865;47.636;7.692;2022-10-23T06:43:06;4.03;;;1.40;;
9473;SDS011;8865;47.636;7.692;2022-10-23T06:45:34;5.47;;;1.00;;
9473;SDS011;8865;47.636;7.692;2022-10-23T06:48:00;2.63;;;1.10;;
9473;SDS011;8865;47.636;7.692;2022-10-23T06:50:26;3.27;;;1.13;;
9473;SDS011;8865;47.636;7.692;2022-10-23T06:52:55;3.03;;;1.00;;
9473;SDS011;8865;47.636;7.692;2022-10-23T06:55:21;5.57;;;1.03;;
9473;SDS011;8865;47.636;7.692;2022-10-23T06:57:47;3.20;;;1.00;;
9473;SDS011;8865;47.636;7.692;2022-10-23T07:00:13;2.97;;;0.97;;
9473;SDS011;8865;47.636;7.692;2022-10-23T07:02:39;5.30;;;1.37;;
9473;SDS011;8865;47.636;7.692;2022-10-23T07:05:05;2.43;;;0.80;;
9473;SDS011;8865;47.636;7.692;2022-10-23T07:07:31;3.97;;;1.10;;
9473;SDS011;8865;47.636;7.692;2022-10-23T07:09:57;2.83;;;1.30;;
9473;SDS011;8865;47.636;7.692;2022-10-23T07:12:23;2.80;;;1.23;;
9473;SDS011;8865;47.636;7.692;2022-10-23T07:14:49;2.47;;;1.30;;
9473;SDS011;8865;47.636;7.692;2022-10-23T07:17:15;4.83;;;1.20;;
9473;SDS011;8865;47.636;7.692;2022-10-23T07:19:41;2.27;;;1.20;;
9473;SDS011;8865;47.636;7.692;2022-10-23T07:22:07;2.87;;;1.40;;
9473;SDS011;8865;47.636;7.692;2022-10-23T07:24:33;3.63;;;1.50;;
9473;SDS011;8865;47.636;7.692;2022-10-23T07:27:02;2.20;;;1.20;;
9473;SDS011;8865;47.636;7.692;2022-10-23T07:29:28;5.63;;;1.50;;
9473;SDS011;8865;47.636;7.692;2022-10-23T07:31:55;3.50;;;1.40;;
9473;SDS011;8865;47.636;7.692;2022-10-23T07:34:22;7.20;;;1.43;;
9473;SDS011;8865;47.636;7.692;2022-10-23T07:36:49;2.20;;;1.40;;
9473;SDS011;8865;47.636;7.692;2022-10-23T07:39:15;4.80;;;1.40;;
9473;SDS011;8865;47.636;7.692;2022-10-23T07:41:41;2.47;;;1.33;;
9473;SDS011;8865;47.636;7.692;2022-10-23T07:44:07;2.97;;;1.20;;
9473;SDS011;8865;47.636;7.692;2022-10-23T07:46:33;2.87;;;1.27;;
9473;SDS011;8865;47.636;7.692;2022-10-23T07:48:59;5.37;;;1.43;;
9473;SDS011;8865;47.636;7.692;2022-10-23T07:51:25;7.80;;;1.50;;
9473;SDS011;8865;47.636;7.692;2022-10-23T07:53:51;7.10;;;1.67;;
9473;SDS011;8865;47.636;7.692;2022-10-23T07:56:20;2.87;;;1.40;;
9473;SDS011;8865;47.636;7.692;2022-10-23T07:58:51;3.03;;;1.30;;
9473;SDS011;8865;47.636;7.692;2022-10-23T08:01:24;2.60;;;1.20;;
9473;SDS011;8865;47.636;7.692;2022-10-23T08:03:55;1.97;;;1.30;;
9473;SDS011;8865;47.636;7.692;2022-10-23T08:06:21;4.43;;;1.37;;
9473;SDS011;8865;47.636;7.692;2022-10-23T08:08:47;3.67;;;1.40;;
9473;SDS011;8865;47.636;7.692;2022-10-23T08:11:14;4.20;;;1.43;;
9473;SDS011;8865;47.636;7.692;2022-10-23T08:13:42;1.77;;;1.30;;
9473;SDS011;8865;47.636;7.692;2022-10-23T08:16:08;3.33;;;1.17;;
9473;SDS011;8865;47.636;7.692;2022-10-23T08:18:34;2.70;;;1.27;;
9473;SDS011;8865;47.636;7.692;2022-10-23T08:21:01;2.23;;;1.10;;
9473;SDS011;8865;47.636;7.692;2022-10-23T08:23:28;2.37;;;1.10;;
9473;SDS011;8865;47.636;7.692;2022-10-23T08:25:58;2.80;;;1.20;;
9473;SDS011;8865;47.636;7.692;2022-10-23T08:28:26;3.93;;;1.00;;
9473;SDS011;8865;47.636;7.692;2022-10-23T08:30:53;2.57;;;1.20;;
9473;SDS011;8865;47.636;7.692;2022-10-23T08:33:19;2.90;;;1.20;;
9473;SDS011;8865;47.636;7.692;2022-10-23T08:35:46;1.20;;;1.10;;
9473;SDS011;8865;47.636;7.692;2022-10-23T08:38:12;2.90;;;1.27;;
9473;SDS011;8865;47.636;7.692;2022-10-23T08:40:40;2.73;;;0.90;;
9473;SDS011;8865;47.636;7.692;2022-10-23T08:45:43;2.43;;;1.30;;
9473;SDS011;8865;47.636;7.692;2022-10-23T08:48:27;1.43;;;1.20;;
9473;SDS011;8865;47.636;7.692;2022-10-23T08:51:07;2.20;;;0.97;;
9473;SDS011;8865;47.636;7.692;2022-10-23T08:56:13;4.23;;;1.17;;
9473;SDS011;8865;47.636;7.692;2022-10-23T08:58:53;1.50;;;1.10;;
9473;SDS011;8865;47.636;7.692;2022-10-23T09:01:29;1.80;;;1.30;;
9473;SDS011;8865;47.636;7.692;2022-10-23T09:03:56;4.50;;;1.10;;
9473;SDS011;8865;47.636;7.692;2022-10-23T09:09:07;1.70;;;1.00;;
9473;SDS011;8865;47.636;7.692;2022-10-23T09:11:54;2.00;;;1.00;;
9473;SDS011;8865;47.636;7.692;2022-10-23T09:17:10;2.13;;;1.10;;
9473;SDS011;8865;47.636;7.692;2022-10-23T09:19:46;2.13;;;1.20;;
9473;SDS011;8865;47.636;7.692;2022-10-23T09:22:15;3.33;;;1.10;;
9473;SDS011;8865;47.636;7.692;2022-10-23T09:24:41;3.37;;;1.30;;
9473;SDS011;8865;47.636;7.692;2022-10-23T09:27:09;1.27;;;1.10;;
9473;SDS011;8865;47.636;7.692;2022-10-23T09:29:46;5.87;;;1.30;;
9473;SDS011;8865;47.636;7.692;2022-10-23T09:32:17;1.83;;;1.13;;
9473;SDS011;8865;47.636;7.692;2022-10-23T09:34:53;1.60;;;1.50;;
9473;SDS011;8865;47.636;7.692;2022-10-23T09:37:24;3.30;;;1.40;;
9473;SDS011;8865;47.636;7.692;2022-10-23T09:40:00;1.37;;;1.27;;
9473;SDS011;8865;47.636;7.692;2022-10-23T09:42:29;1.67;;;1.57;;
9473;SDS011;8865;47.636;7.692;2022-10-23T09:44:55;4.13;;;1.40;;
9473;SDS011;8865;47.636;7.692;2022-10-23T09:47:22;1.20;;;1.10;;
9473;SDS011;8865;47.636;7.692;2022-10-23T09:49:50;1.43;;;1.20;;
9473;SDS011;8865;47.636;7.692;2022-10-23T09:52:21;1.40;;;1.10;;
9473;SDS011;8865;47.636;7.692;2022-10-23T09:54:53;1.60;;;1.30;;
9473;SDS011;8865;47.636;7.692;2022-10-23T09:57:29;1.60;;;1.50;;
9473;SDS011;8865;47.636;7.692;2022-10-23T10:00:05;1.50;;;1.40;;
9473;SDS011;8865;47.636;7.692;2022-10-23T10:02:41;1.63;;;1.40;;
9473;SDS011;8865;47.636;7.692;2022-10-23T10:10:44;5.43;;;1.70;;
9473;SDS011;8865;47.636;7.692;2022-10-23T10:19:10;3.17;;;2.00;;
9473;SDS011;8865;47.636;7.692;2022-10-23T10:24:41;2.75;;;1.45;;
9473;SDS011;8865;47.636;7.692;2022-10-23T10:27:26;3.60;;;1.73;;
9473;SDS011;8865;47.636;7.692;2022-10-23T10:30:10;2.17;;;1.58;;
9473;SDS011;8865;47.636;7.692;2022-10-23T10:32:49;2.72;;;1.67;;
9473;SDS011;8865;47.636;7.692;2022-10-23T10:38:26;1.60;;;1.50;;
9473;SDS011;8865;47.636;7.692;2022-10-23T10:41:21;2.30;;;1.58;;
9473;SDS011;8865;47.636;7.692;2022-10-23T10:47:18;2.42;;;1.55;;
9473;SDS011;8865;47.636;7.692;2022-10-23T10:52:32;2.15;;;1.65;;
9473;SDS011;8865;47.636;7.692;2022-10-23T10:57:58;2.25;;;1.50;;
9473;SDS011;8865;47.636;7.692;2022-10-23T11:00:30;1.60;;;1.50;;
9473;SDS011;8865;47.636;7.692;2022-10-23T11:05:43;2.03;;;1.58;;
9473;SDS011;8865;47.636;7.692;2022-10-23T11:08:45;1.98;;;1.75;;
9473;SDS011;8865;47.636;7.692;2022-10-23T11:13:45;3.28;;;1.90;;
9473;SDS011;8865;47.636;7.692;2022-10-23T11:16:27;2.25;;;2.05;;
9473;SDS011;8865;47.636;7.692;2022-10-23T11:21:53;2.55;;;1.70;;
9473;SDS011;8865;47.636;7.692;2022-10-23T11:27:20;2.38;;;2.00;;
9473;SDS011;8865;47.636;7.692;2022-10-23T11:32:51;2.10;;;1.73;;
9473;SDS011;8865;47.636;7.692;2022-10-23T11:38:23;2.00;;;1.85;;
9473;SDS011;8865;47.636;7.692;2022-10-23T11:40:58;3.13;;;2.00;;
9473;SDS011;8865;47.636;7.692;2022-10-23T11:43:34;2.33;;;1.80;;
9473;SDS011;8865;47.636;7.692;2022-10-23T11:48:53;2.30;;;2.10;;
9473;SDS011;8865;47.636;7.692;2022-10-23T11:51:27;4.18;;;2.53;;
9473;SDS011;8865;47.636;7.692;2022-10-23T11:54:17;3.38;;;2.00;;
9473;SDS011;8865;47.636;7.692;2022-10-23T11:56:53;2.58;;;2.20;;
9473;SDS011;8865;47.636;7.692;2022-10-23T11:59:32;4.43;;;2.05;;
9473;SDS011;8865;47.636;7.692;2022-10-23T12:02:00;3.73;;;2.20;;
9473;SDS011;8865;47.636;7.692;2022-10-23T12:04:37;4.03;;;2.33;;
9473;SDS011;8865;47.636;7.692;2022-10-23T12:07:15;3.10;;;2.27;;
9473;SDS011;8865;47.636;7.692;2022-10-23T12:09:55;4.63;;;2.40;;
9473;SDS011;8865;47.636;7.692;2022-10-23T12:17:41;2.37;;;2.17;;
9473;SDS011;8865;47.636;7.692;2022-10-23T12:22:49;4.07;;;2.60;;
9473;SDS011;8865;47.636;7.692;2022-10-23T12:28:02;2.87;;;2.20;;
9473;SDS011;8865;47.636;7.692;2022-10-23T12:33:20;2.63;;;2.10;;
9473;SDS011;8865;47.636;7.692;2022-10-23T12:38:45;2.50;;;1.80;;
9473;SDS011;8865;47.636;7.692;2022-10-23T12:41:13;1.90;;;1.70;;
9473;SDS011;8865;47.636;7.692;2022-10-23T12:43:50;2.63;;;1.70;;
9473;SDS011;8865;47.636;7.692;2022-10-23T12:46:39;2.83;;;2.00;;
9473;SDS011;8865;47.636;7.692;2022-10-23T12:49:16;3.93;;;1.63;;
9473;SDS011;8865;47.636;7.692;2022-10-23T12:51:44;4.27;;;1.50;;
9473;SDS011;8865;47.636;7.692;2022-10-23T12:54:19;3.30;;;1.57;;
9473;SDS011;8865;47.636;7.692;2022-10-23T12:56:46;1.90;;;1.70;;
9473;SDS011;8865;47.636;7.692;2022-10-23T13:01:57;2.73;;;1.60;;
9473;SDS011;8865;47.636;7.692;2022-10-23T13:04:31;2.67;;;1.60;;
9473;SDS011;8865;47.636;7.692;2022-10-23T13:07:00;6.30;;;1.50;;
9473;SDS011;8865;47.636;7.692;2022-10-23T13:09:39;3.13;;;1.80;;
9473;SDS011;8865;47.636;7.692;2022-10-23T13:12:07;2.20;;;1.30;;
9473;SDS011;8865;47.636;7.692;2022-10-23T13:14:41;3.60;;;1.50;;
9473;SDS011;8865;47.636;7.692;2022-10-23T13:17:09;3.47;;;1.60;;
9473;SDS011;8865;47.636;7.692;2022-10-23T13:19:36;3.27;;;1.50;;
9473;SDS011;8865;47.636;7.692;2022-10-23T13:22:03;2.43;;;1.80;;
9473;SDS011;8865;47.636;7.692;2022-10-23T13:24:41;3.83;;;1.40;;
9473;SDS011;8865;47.636;7.692;2022-10-23T13:27:24;2.13;;;1.30;;
9473;SDS011;8865;47.636;7.692;2022-10-23T13:29:56;2.07;;;1.60;;
9473;SDS011;8865;47.636;7.692;2022-10-23T13:32:22;2.17;;;1.10;;
9473;SDS011;8865;47.636;7.692;2022-10-23T13:34:54;2.60;;;1.50;;
9473;SDS011;8865;47.636;7.692;2022-10-23T13:37:26;2.67;;;1.40;;
9473;SDS011;8865;47.636;7.692;2022-10-23T13:39:58;5.03;;;1.60;;
9473;SDS011;8865;47.636;7.692;2022-10-23T13:42:26;3.67;;;1.40;;
9473;SDS011;8865;47.636;7.692;2022-10-23T13:44:52;2.83;;;1.50;;
9473;SDS011;8865;47.636;7.692;2022-10-23T13:47:17;2.38;;;1.38;;
9473;SDS011;8865;47.636;7.692;2022-10-23T13:49:44;2.92;;;1.33;;
9473;SDS011;8865;47.636;7.692;2022-10-23T13:52:11;2.35;;;1.20;;
9473;SDS011;8865;47.636;7.692;2022-10-23T13:54:39;2.92;;;1.50;;
9473;SDS011;8865;47.636;7.692;2022-10-23T13:57:08;3.40;;;1.40;;
9473;SDS011;8865;47.636;7.692;2022-10-23T13:59:38;4.05;;;1.45;;
9473;SDS011;8865;47.636;7.692;2022-10-23T14:02:13;6.80;;;1.65;;
9473;SDS011;8865;47.636;7.692;2022-10-23T14:04:44;5.07;;;1.40;;
9473;SDS011;8865;47.636;7.692;2022-10-23T14:07:10;2.92;;;1.50;;
9473;SDS011;8865;47.636;7.692;2022-10-23T14:09:36;4.03;;;1.58;;
9473;SDS011;8865;47.636;7.692;2022-10-23T14:12:02;2.70;;;1.85;;
9473;SDS011;8865;47.636;7.692;2022-10-23T14:14:29;2.25;;;1.50;;
9473;SDS011;8865;47.636;7.692;2022-10-23T14:16:55;3.90;;;1.65;;
9473;SDS011;8865;47.636;7.692;2022-10-23T14:19:21;4.43;;;1.50;;
9473;SDS011;8865;47.636;7.692;2022-10-23T14:21:47;3.80;;;1.70;;
9473;SDS011;8865;47.636;7.692;2022-10-23T14:24:13;4.35;;;1.80;;
9473;SDS011;8865;47.636;7.692;2022-10-23T14:26:39;4.75;;;1.67;;
9473;SDS011;8865;47.636;7.692;2022-10-23T14:29:05;5.50;;;1.70;;
9473;SDS011;8865;47.636;7.692;2022-10-23T14:31:31;4.40;;;1.48;;
9473;SDS011;8865;47.636;7.692;2022-10-23T14:33:57;4.13;;;1.73;;
9473;SDS011;8865;47.636;7.692;2022-10-23T14:36:26;5.53;;;1.87;;
9473;SDS011;8865;47.636;7.692;2022-10-23T14:38:56;3.30;;;1.70;;
9473;SDS011;8865;47.636;7.692;2022-10-23T14:41:23;4.07;;;1.97;;
9473;SDS011;8865;47.636;7.692;2022-10-23T14:43:50;5.90;;;1.80;;
9473;SDS011;8865;47.636;7.692;2022-10-23T14:46:17;3.77;;;1.83;;
9473;SDS011;8865;47.636;7.692;2022-10-23T14:48:45;6.47;;;3.53;;
9473;SDS011;8865;47.636;7.692;2022-10-23T14:51:19;6.07;;;1.97;;
9473;SDS011;8865;47.636;7.692;2022-10-23T14:53:47;8.97;;;5.20;;
9473;SDS011;8865;47.636;7.692;2022-10-23T14:58:41;9.60;;;5.67;;
9473;SDS011;8865;47.636;7.692;2022-10-23T15:01:07;8.63;;;5.73;;
9473;SDS011;8865;47.636;7.692;2022-10-23T15:03:35;8.47;;;3.97;;
9473;SDS011;8865;47.636;7.692;2022-10-23T15:06:01;4.37;;;2.20;;
9473;SDS011;8865;47.636;7.692;2022-10-23T15:08:28;3.17;;;1.70;;
9473;SDS011;8865;47.636;7.692;2022-10-23T15:10:54;4.90;;;1.90;;
9473;SDS011;8865;47.636;7.692;2022-10-23T15:13:24;5.03;;;1.60;;
9473;SDS011;8865;47.636;7.692;2022-10-23T15:15:59;5.07;;;2.27;;
9473;SDS011;8865;47.636;7.692;2022-10-23T15:18:26;3.53;;;1.87;;
9473;SDS011;8865;47.636;7.692;2022-10-23T15:20:52;4.03;;;1.70;;
9473;SDS011;8865;47.636;7.692;2022-10-23T15:23:18;2.67;;;1.80;;
9473;SDS011;8865;47.636;7.692;2022-10-23T15:25:44;4.03;;;1.83;;
9473;SDS011;8865;47.636;7.692;2022-10-23T15:28:19;5.23;;;2.43;;
9473;SDS011;8865;47.636;7.692;2022-10-23T15:30:45;3.93;;;1.60;;
9473;SDS011;8865;47.636;7.692;2022-10-23T15:33:11;4.50;;;2.20;;
9473;SDS011;8865;47.636;7.692;2022-10-23T15:35:37;3.53;;;2.23;;
9473;SDS011;8865;47.636;7.692;2022-10-23T15:38:03;8.13;;;1.93;;
9473;SDS011;8865;47.636;7.692;2022-10-23T15:40:29;4.17;;;1.80;;
9473;SDS011;8865;47.636;7.692;2022-10-23T15:42:55;5.50;;;2.00;;
9473;SDS011;8865;47.636;7.692;2022-10-23T15:45:21;4.80;;;1.90;;
9473;SDS011;8865;47.636;7.692;2022-10-23T15:47:47;4.60;;;2.23;;
9473;SDS011;8865;47.636;7.692;2022-10-23T15:50:12;4.97;;;2.50;;
9473;SDS011;8865;47.636;7.692;2022-10-23T15:52:38;8.77;;;2.50;;
9473;SDS011;8865;47.636;7.692;2022-10-23T15:55:04;5.70;;;2.60;;
9473;SDS011;8865;47.636;7.692;2022-10-23T15:57:31;4.80;;;2.43;;
9473;SDS011;8865;47.636;7.692;2022-10-23T15:59:57;12.40;;;6.53;;
9473;SDS011;8865;47.636;7.692;2022-10-23T16:02:23;10.93;;;5.90;;
9473;SDS011;8865;47.636;7.692;2022-10-23T16:04:49;7.27;;;3.00;;
9473;SDS011;8865;47.636;7.692;2022-10-23T16:07:15;6.73;;;2.80;;
9473;SDS011;8865;47.636;7.692;2022-10-23T16:09:41;7.70;;;2.80;;
9473;SDS011;8865;47.636;7.692;2022-10-23T16:12:07;9.07;;;3.00;;
9473;SDS011;8865;47.636;7.692;2022-10-23T16:14:33;7.77;;;2.73;;
9473;SDS011;8865;47.636;7.692;2022-10-23T16:16:59;6.87;;;2.87;;
9473;SDS011;8865;47.636;7.692;2022-10-23T16:19:25;8.03;;;2.60;;
9473;SDS011;8865;47.636;7.692;2022-10-23T16:21:51;10.03;;;3.20;;
9473;SDS011;8865;47.636;7.692;2022-10-23T16:24:17;10.07;;;3.07;;
9473;SDS011;8865;47.636;7.692;2022-10-23T16:26:43;6.57;;;2.77;;
9473;SDS011;8865;47.636;7.692;2022-10-23T16:29:14;6.70;;;3.10;;
9473;SDS011;8865;47.636;7.692;2022-10-23T16:31:40;8.70;;;2.93;;
9473;SDS011;8865;47.636;7.692;2022-10-23T16:34:06;6.60;;;2.90;;
9473;SDS011;8865;47.636;7.692;2022-10-23T16:36:32;7.00;;;3.13;;
9473;SDS011;8865;47.636;7.692;2022-10-23T16:39:00;9.20;;;2.93;;
9473;SDS011;8865;47.636;7.692;2022-10-23T16:41:27;6.47;;;2.83;;
9473;SDS011;8865;47.636;7.692;2022-10-23T16:43:53;6.00;;;3.10;;
9473;SDS011;8865;47.636;7.692;2022-10-23T16:46:19;10.47;;;3.37;;
9473;SDS011;8865;47.636;7.692;2022-10-23T16:48:46;7.13;;;3.10;;
9473;SDS011;8865;47.636;7.692;2022-10-23T16:51:14;6.40;;;2.80;;
9473;SDS011;8865;47.636;7.692;2022-10-23T16:53:42;8.43;;;2.60;;
9473;SDS011;8865;47.636;7.692;2022-10-23T16:56:09;11.07;;;3.37;;
9473;SDS011;8865;47.636;7.692;2022-10-23T16:58:37;6.33;;;2.70;;
9473;SDS011;8865;47.636;7.692;2022-10-23T17:01:08;7.47;;;3.20;;
9473;SDS011;8865;47.636;7.692;2022-10-23T17:03:38;8.20;;;2.90;;
9473;SDS011;8865;47.636;7.692;2022-10-23T17:06:07;7.77;;;3.13;;
9473;SDS011;8865;47.636;7.692;2022-10-23T17:08:34;6.47;;;2.80;;
9473;SDS011;8865;47.636;7.692;2022-10-23T17:11:02;7.57;;;3.23;;
9473;SDS011;8865;47.636;7.692;2022-10-23T17:13:32;9.70;;;8.70;;